createdAt,value
2023-05-24T00:00:48.822Z,5.50
2023-05-24T00:03:19.128Z,6.53
2023-05-24T00:05:47.241Z,5.70
2023-05-24T00:08:16.104Z,8.63
2023-05-24T00:10:44.514Z,7.30
2023-05-24T00:13:12.637Z,8.80
2023-05-24T00:15:40.545Z,10.20
2023-05-24T00:18:08.545Z,8.93
2023-05-24T00:20:37.939Z,11.13
2023-05-24T00:23:06.025Z,12.13
2023-05-24T00:25:33.990Z,10.80
2023-05-24T00:28:01.918Z,9.63
2023-05-24T00:30:29.848Z,8.83
2023-05-24T00:32:58.234Z,11.03
2023-05-24T00:35:26.234Z,8.23
2023-05-24T00:37:55.529Z,7.53
2023-05-24T00:40:23.457Z,7.10
2023-05-24T00:42:51.419Z,8.23
2023-05-24T00:45:19.347Z,7.70
2023-05-24T00:47:47.972Z,8.80
2023-05-24T00:50:17.372Z,11.13
2023-05-24T00:52:46.209Z,6.97
2023-05-24T00:55:15.998Z,7.80
2023-05-24T00:57:44.795Z,9.13
2023-05-24T01:00:13.799Z,8.67
2023-05-24T01:02:42.133Z,6.47
2023-05-24T01:05:13.785Z,7.20
2023-05-24T01:07:55.665Z,7.13
2023-05-24T01:10:33.461Z,5.40
2023-05-24T01:13:08.538Z,7.63
2023-05-24T01:15:46.928Z,6.07
2023-05-24T01:18:22.256Z,5.33
2023-05-24T01:21:02.628Z,4.90
2023-05-24T01:23:43.246Z,5.93
2023-05-24T01:26:30.414Z,6.37
2023-05-24T01:29:02.377Z,5.50
2023-05-24T01:31:30.371Z,9.07
2023-05-24T01:33:58.880Z,5.53
2023-05-24T01:36:27.098Z,7.10
2023-05-24T01:38:55.144Z,6.03
2023-05-24T01:41:34.422Z,6.43
2023-05-24T01:44:12.603Z,8.20
2023-05-24T01:46:40.723Z,7.23
2023-05-24T01:49:18.521Z,8.50
2023-05-24T01:51:51.969Z,7.10
2023-05-24T01:54:24.511Z,6.50
2023-05-24T01:56:55.074Z,6.27
2023-05-24T01:59:27.070Z,8.33
2023-05-24T02:01:55.791Z,8.90
2023-05-24T02:04:24.044Z,9.13
2023-05-24T02:06:52.177Z,6.30
2023-05-24T02:09:20.277Z,6.50
2023-05-24T02:11:48.271Z,6.53
2023-05-24T02:14:17.413Z,6.97
2023-05-24T02:16:47.516Z,6.03
2023-05-24T02:19:17.216Z,8.03
2023-05-24T02:21:45.632Z,6.77
2023-05-24T02:24:13.696Z,6.80
2023-05-24T02:26:41.922Z,5.83
2023-05-24T02:29:09.910Z,6.70
2023-05-24T02:31:38.276Z,6.87
2023-05-24T02:34:07.996Z,7.03
2023-05-24T02:36:37.622Z,10.37
2023-05-24T02:39:06.339Z,5.57
2023-05-24T02:41:34.252Z,6.67
2023-05-24T02:44:02.101Z,8.27
2023-05-24T02:46:30.068Z,6.77
2023-05-24T02:48:57.991Z,8.47
2023-05-24T02:51:27.224Z,7.10
2023-05-24T02:53:55.282Z,6.33
2023-05-24T02:56:23.190Z,6.90
2023-05-24T02:58:51.168Z,5.87
2023-05-24T03:01:19.940Z,7.53
2023-05-24T03:03:48.219Z,7.40
2023-05-24T03:06:16.411Z,6.50
2023-05-24T03:08:46.110Z,9.37
2023-05-24T03:11:14.167Z,7.17
2023-05-24T03:13:42.578Z,6.40
2023-05-24T03:16:10.671Z,6.50
2023-05-24T03:18:38.573Z,7.20
2023-05-24T03:21:07.622Z,6.33
2023-05-24T03:23:35.680Z,8.50
2023-05-24T03:26:05.181Z,6.00
2023-05-24T03:28:33.851Z,7.87
2023-05-24T03:31:01.789Z,11.73
2023-05-24T03:33:30.113Z,6.27
2023-05-24T03:35:57.978Z,5.67
2023-05-24T03:38:26.017Z,6.67
2023-05-24T03:40:54.024Z,6.73
2023-05-24T03:43:23.336Z,6.63
2023-05-24T03:45:52.296Z,5.70
2023-05-24T03:48:20.950Z,5.87
2023-05-24T03:50:49.087Z,5.53
2023-05-24T03:53:17.147Z,5.90
2023-05-24T03:55:45.104Z,9.43
2023-05-24T03:58:13.742Z,5.93
2023-05-24T04:00:43.393Z,5.53
2023-05-24T04:03:12.282Z,6.30
2023-05-24T04:05:40.410Z,6.03
2023-05-24T04:08:08.538Z,6.03
2023-05-24T04:10:36.424Z,7.97
2023-05-24T04:13:04.349Z,7.27
2023-05-24T04:15:33.114Z,6.43
2023-05-24T04:18:03.483Z,6.20
2023-05-24T04:20:31.596Z,6.43
2023-05-24T04:23:00.039Z,7.80
2023-05-24T04:25:28.050Z,6.00
2023-05-24T04:27:56.234Z,7.83
2023-05-24T04:30:24.445Z,9.10
2023-05-24T04:32:52.969Z,8.63
2023-05-24T04:35:22.708Z,6.90
2023-05-24T04:37:50.866Z,8.17
2023-05-24T04:40:20.764Z,8.17
2023-05-24T04:42:48.943Z,6.90
2023-05-24T04:45:17.239Z,10.53
2023-05-24T04:47:45.251Z,7.50
2023-05-24T04:50:13.295Z,7.40
2023-05-24T04:52:42.589Z,7.20
2023-05-24T04:55:11.526Z,10.10
2023-05-24T04:57:39.508Z,8.83
2023-05-24T05:00:10.287Z,10.83
2023-05-24T05:02:38.288Z,8.97
2023-05-24T05:05:07.177Z,8.30
2023-05-24T05:07:35.062Z,13.00
2023-05-24T05:10:04.457Z,10.77
2023-05-24T05:12:32.354Z,7.63
2023-05-24T05:15:00.294Z,8.13
2023-05-24T05:17:28.200Z,10.60
2023-05-24T05:19:56.082Z,9.23
2023-05-24T05:22:24.112Z,13.80
2023-05-24T05:24:52.685Z,9.67
2023-05-24T05:27:21.991Z,8.63
2023-05-24T05:29:49.975Z,11.67
2023-05-24T05:32:18.032Z,10.17
2023-05-24T05:34:46.485Z,8.23
2023-05-24T05:37:14.656Z,8.83
2023-05-24T05:39:42.578Z,10.37
2023-05-24T05:42:10.467Z,8.40
2023-05-24T05:44:39.784Z,14.23
2023-05-24T05:47:09.523Z,7.47
2023-05-24T05:49:37.570Z,7.50
2023-05-24T05:52:06.255Z,8.53
2023-05-24T05:54:34.493Z,8.30
2023-05-24T05:57:02.451Z,9.43
2023-05-24T05:59:30.406Z,8.30
2023-05-24T06:01:59.676Z,8.70
2023-05-24T06:04:27.639Z,8.00
2023-05-24T06:06:55.569Z,10.60
2023-05-24T06:09:23.615Z,7.60
2023-05-24T06:11:51.619Z,7.77
2023-05-24T06:14:21.410Z,7.27
2023-05-24T06:16:49.502Z,6.67
2023-05-24T06:19:19.130Z,9.20
2023-05-24T06:21:48.491Z,7.87
2023-05-24T06:24:20.550Z,10.20
2023-05-24T06:26:48.865Z,8.10
2023-05-24T06:29:16.928Z,9.53
2023-05-24T06:31:44.972Z,11.13
2023-05-24T06:34:13.094Z,8.57
2023-05-24T06:36:43.072Z,9.37
2023-05-24T06:39:11.454Z,9.83
2023-05-24T06:41:39.500Z,9.47
2023-05-24T06:44:07.546Z,11.80
2023-05-24T06:46:35.825Z,13.13
2023-05-24T06:49:04.390Z,12.33
2023-05-24T06:51:33.950Z,9.40
2023-05-24T06:54:03.446Z,9.43
2023-05-24T06:56:31.391Z,11.53
2023-05-24T06:59:00.009Z,8.57
2023-05-24T07:01:28.404Z,8.70
2023-05-24T07:03:56.421Z,12.33
2023-05-24T07:06:25.211Z,8.77
2023-05-24T07:08:53.148Z,10.70
2023-05-24T07:11:22.893Z,7.80
2023-05-24T07:13:50.798Z,9.53
2023-05-24T07:16:18.841Z,7.73
2023-05-24T07:18:46.850Z,7.80
2023-05-24T07:21:14.746Z,7.77
2023-05-24T07:23:42.815Z,9.50
2023-05-24T07:26:10.761Z,15.67
2023-05-24T07:28:40.568Z,10.50
2023-05-24T07:31:10.409Z,7.38
2023-05-24T07:33:38.829Z,9.63
2023-05-24T07:36:07.468Z,8.63
2023-05-24T07:38:36.191Z,10.10
2023-05-24T07:41:04.919Z,9.02
2023-05-24T07:43:33.142Z,8.27
2023-05-24T07:46:02.997Z,12.13
2023-05-24T07:48:30.860Z,9.82
2023-05-24T07:50:58.781Z,10.40
2023-05-24T07:53:26.800Z,8.80
2023-05-24T07:55:55.226Z,11.25
2023-05-24T07:58:23.224Z,9.80
2023-05-24T08:00:51.309Z,11.55
2023-05-24T08:03:20.731Z,9.07
2023-05-24T08:05:48.686Z,9.15
2023-05-24T08:08:16.660Z,11.90
2023-05-24T08:10:44.595Z,11.23
2023-05-24T08:13:12.585Z,9.10
2023-05-24T08:15:40.940Z,7.82
2023-05-24T08:18:09.635Z,13.20
2023-05-24T08:20:40.936Z,7.50
2023-05-24T08:23:09.030Z,10.63
2023-05-24T08:25:36.995Z,8.68
2023-05-24T08:28:04.982Z,8.13
2023-05-24T08:30:33.358Z,7.15
2023-05-24T08:33:01.691Z,5.25
2023-05-24T08:35:30.360Z,5.68
2023-05-24T08:37:59.742Z,4.40
2023-05-24T08:40:27.678Z,5.10
2023-05-24T08:42:58.011Z,8.40
2023-05-24T08:45:30.366Z,5.03
2023-05-24T08:47:58.736Z,4.35
2023-05-24T08:50:27.123Z,3.97
2023-05-24T08:52:55.840Z,5.55
2023-05-24T08:55:25.862Z,4.80
2023-05-24T08:57:53.905Z,11.73
2023-05-24T09:00:22.902Z,4.35
2023-05-24T09:02:51.510Z,3.92
2023-05-24T09:05:21.974Z,4.55
2023-05-24T09:07:51.582Z,4.78
2023-05-24T09:10:21.604Z,5.82
2023-05-24T09:12:57.614Z,6.55
2023-05-24T09:15:25.891Z,4.30
2023-05-24T09:17:53.849Z,4.30
2023-05-24T09:20:22.614Z,8.15
2023-05-24T09:22:53.273Z,4.70
2023-05-24T09:25:21.787Z,8.48
2023-05-24T09:27:55.160Z,11.13
2023-05-24T09:30:23.363Z,5.47
2023-05-24T09:32:57.675Z,5.63
2023-05-24T09:35:26.911Z,4.25
2023-05-24T09:38:00.101Z,4.68
2023-05-24T09:40:28.934Z,4.07
2023-05-24T09:43:09.928Z,4.72
2023-05-24T09:45:44.471Z,6.93
2023-05-24T09:48:13.687Z,4.10
2023-05-24T09:50:42.492Z,3.05
2023-05-24T09:53:10.608Z,3.88
2023-05-24T09:55:38.967Z,3.78
2023-05-24T09:58:09.601Z,3.35
2023-05-24T10:00:41.672Z,3.50
2023-05-24T10:03:12.790Z,4.03
2023-05-24T10:05:43.554Z,5.47
2023-05-24T10:08:11.612Z,4.88
2023-05-24T10:10:39.551Z,5.22
2023-05-24T10:13:08.896Z,3.47
2023-05-24T10:15:36.782Z,3.63
2023-05-24T10:18:10.586Z,3.38
2023-05-24T10:20:57.182Z,3.13
2023-05-24T10:23:26.879Z,3.47
2023-05-24T10:26:01.674Z,2.90
2023-05-24T10:28:32.714Z,5.40
2023-05-24T10:31:07.455Z,4.03
2023-05-24T10:33:38.444Z,4.03
2023-05-24T10:36:09.992Z,3.78
2023-05-24T10:38:40.950Z,5.50
2023-05-24T10:41:09.408Z,4.90
2023-05-24T10:43:39.433Z,4.03
2023-05-24T10:46:10.705Z,4.10
2023-05-24T10:48:42.059Z,6.70
2023-05-24T10:51:36.680Z,4.68
2023-05-24T10:54:15.873Z,4.57
2023-05-24T10:56:46.328Z,3.17
2023-05-24T10:59:37.332Z,4.18
2023-05-24T11:02:09.854Z,3.88
2023-05-24T11:04:40.237Z,4.15
2023-05-24T11:07:10.564Z,3.75
2023-05-24T11:09:46.206Z,3.55
2023-05-24T11:12:17.534Z,3.42
2023-05-24T11:14:51.354Z,3.25
2023-05-24T11:17:23.935Z,5.10
2023-05-24T11:19:53.586Z,5.60
2023-05-24T11:22:23.034Z,3.63
2023-05-24T11:24:51.771Z,4.38
2023-05-24T11:27:19.702Z,3.80
2023-05-24T11:29:50.229Z,4.55
2023-05-24T11:32:20.006Z,4.60
2023-05-24T11:34:49.134Z,3.70
2023-05-24T11:37:18.778Z,3.28
2023-05-24T11:39:51.515Z,4.68
2023-05-24T11:42:19.719Z,4.95
2023-05-24T11:44:51.360Z,4.63
2023-05-24T11:47:22.496Z,4.00
2023-05-24T11:49:52.027Z,3.70
2023-05-24T11:52:20.064Z,3.53
2023-05-24T11:54:47.996Z,3.78
2023-05-24T11:57:16.890Z,3.65
2023-05-24T11:59:44.867Z,4.70
2023-05-24T12:02:14.636Z,3.40
2023-05-24T12:04:42.638Z,3.33
2023-05-24T12:07:12.229Z,4.22
2023-05-24T12:09:40.218Z,4.20
2023-05-24T12:12:08.670Z,4.32
2023-05-24T12:14:37.359Z,4.38
2023-05-24T12:17:05.389Z,3.28
2023-05-24T12:19:36.884Z,7.47
2023-05-24T12:22:06.547Z,3.50
2023-05-24T12:24:35.279Z,4.07
2023-05-24T12:27:06.937Z,6.25
2023-05-24T12:29:36.902Z,3.63
2023-05-24T12:32:05.896Z,5.55
2023-05-24T12:34:35.229Z,5.15
2023-05-24T12:37:03.912Z,3.22
2023-05-24T12:39:34.317Z,3.75
2023-05-24T12:42:03.718Z,3.40
2023-05-24T12:44:34.027Z,2.97
2023-05-24T12:47:04.209Z,4.40
2023-05-24T12:49:33.014Z,3.85
2023-05-24T12:52:02.934Z,3.42
2023-05-24T12:54:31.425Z,2.83
2023-05-24T12:57:02.661Z,5.43
2023-05-24T12:59:30.919Z,2.90
2023-05-24T13:01:58.863Z,3.30
2023-05-24T13:04:28.141Z,3.65
2023-05-24T13:06:56.214Z,2.92
2023-05-24T13:09:26.288Z,6.90
2023-05-24T13:11:55.274Z,3.08
2023-05-24T13:14:23.377Z,3.13
2023-05-24T13:16:51.586Z,3.30
2023-05-24T13:19:19.639Z,3.47
2023-05-24T13:21:47.636Z,4.45
2023-05-24T13:24:17.456Z,3.58
2023-05-24T13:26:47.220Z,4.68
2023-05-24T13:31:47.879Z,3.20
2023-05-24T13:34:17.671Z,5.13
2023-05-24T13:36:47.367Z,3.38
2023-05-24T13:39:16.457Z,5.55
2023-05-24T13:41:46.753Z,8.52
2023-05-24T13:44:15.761Z,3.45
2023-05-24T13:46:44.561Z,3.17
2023-05-24T13:49:13.784Z,3.78
2023-05-24T13:51:42.255Z,5.00
2023-05-24T13:54:10.209Z,7.32
2023-05-24T13:56:39.675Z,5.13
2023-05-24T13:59:09.896Z,3.90
2023-05-24T14:01:39.345Z,6.18
2023-05-24T14:04:08.076Z,4.15
2023-05-24T14:06:37.680Z,3.58
2023-05-24T14:09:07.635Z,4.32
2023-05-24T14:11:35.764Z,6.65
2023-05-24T14:16:36.743Z,4.88
2023-05-24T14:19:05.260Z,3.55
2023-05-24T14:21:33.571Z,3.50
2023-05-24T14:24:01.477Z,4.90
2023-05-24T14:26:29.480Z,4.93
2023-05-24T14:28:57.361Z,6.20
2023-05-24T14:31:25.607Z,3.97
2023-05-24T14:33:54.969Z,4.15
2023-05-24T14:36:22.995Z,3.13
2023-05-24T14:38:51.010Z,5.80
2023-05-24T14:41:19.351Z,2.92
2023-05-24T14:43:47.187Z,5.20
2023-05-24T14:46:15.081Z,4.78
2023-05-24T14:48:43.267Z,4.35
2023-05-24T14:51:12.539Z,3.40
2023-05-24T14:53:40.414Z,2.83
2023-05-24T14:56:10.142Z,3.05
2023-05-24T14:58:38.152Z,3.63
2023-05-24T15:01:06.871Z,5.65
2023-05-24T15:03:35.267Z,3.85
2023-05-24T15:06:03.767Z,4.13
2023-05-24T15:08:34.270Z,4.38
2023-05-24T15:11:02.173Z,7.53
2023-05-24T15:13:30.130Z,5.22
2023-05-24T15:16:00.489Z,6.13
2023-05-24T15:18:29.118Z,5.50
2023-05-24T15:20:57.293Z,4.50
2023-05-24T15:23:25.693Z,5.70
2023-05-24T15:25:55.177Z,6.05
2023-05-24T15:28:26.035Z,5.65
2023-05-24T15:30:54.468Z,3.53
2023-05-24T15:33:22.576Z,3.92
2023-05-24T15:35:50.626Z,7.60
2023-05-24T15:38:18.839Z,8.90
2023-05-24T15:40:47.075Z,3.45
2023-05-24T15:43:19.446Z,4.10
2023-05-24T15:45:48.638Z,3.92
2023-05-24T15:48:16.628Z,5.95
2023-05-24T15:51:06.465Z,3.30
2023-05-24T15:53:32.889Z,4.22
2023-05-24T15:56:00.916Z,6.03
2023-05-24T15:58:30.386Z,7.35
2023-05-24T16:00:58.436Z,4.82
2023-05-24T16:03:26.608Z,3.53
2023-05-24T16:05:54.695Z,3.33
2023-05-24T16:08:27.629Z,3.63
2023-05-24T16:10:55.828Z,2.92
2023-05-24T16:13:23.818Z,3.83
2023-05-24T16:15:53.105Z,3.08
2023-05-24T16:18:22.960Z,3.97
2023-05-24T16:20:51.826Z,4.50
2023-05-24T16:23:23.185Z,3.47
2023-05-24T16:25:51.469Z,3.60
2023-05-24T16:28:24.118Z,4.25
2023-05-24T16:30:56.040Z,5.68
2023-05-24T16:33:24.646Z,7.03
2023-05-24T16:35:56.156Z,3.60
2023-05-24T16:38:24.617Z,4.70
2023-05-24T16:40:52.868Z,4.63
2023-05-24T16:43:21.657Z,4.73
2023-05-24T16:45:49.993Z,3.90
2023-05-24T16:48:21.408Z,5.83
2023-05-24T16:50:50.500Z,5.93
2023-05-24T16:53:20.472Z,5.60
2023-05-24T16:55:53.686Z,6.47
2023-05-24T16:58:21.696Z,5.83
2023-05-24T17:00:49.738Z,4.50
2023-05-24T17:03:22.073Z,6.80
2023-05-24T17:05:50.389Z,6.13
2023-05-24T17:08:18.993Z,5.93
2023-05-24T17:10:46.928Z,6.55
2023-05-24T17:13:14.832Z,5.63
2023-05-24T17:15:42.811Z,8.47
2023-05-24T17:18:10.842Z,5.50
2023-05-24T17:20:40.476Z,5.37
2023-05-24T17:23:08.465Z,9.20
2023-05-24T17:25:36.494Z,4.90
2023-05-24T17:28:04.551Z,5.67
2023-05-24T17:30:33.317Z,4.47
2023-05-24T17:33:01.738Z,6.10
2023-05-24T17:35:30.144Z,5.37
2023-05-24T17:38:03.190Z,7.53
2023-05-24T17:40:31.088Z,7.63
2023-05-24T17:42:59.250Z,4.77
2023-05-24T17:45:27.392Z,3.40
2023-05-24T17:47:55.393Z,5.73
2023-05-24T17:50:23.479Z,5.83
2023-05-24T17:52:51.561Z,5.10
2023-05-24T17:55:20.845Z,3.87
2023-05-24T17:57:49.086Z,5.70
2023-05-24T18:00:17.968Z,6.43
2023-05-24T18:02:46.419Z,5.67
2023-05-24T18:05:16.039Z,7.33
2023-05-24T18:07:44.083Z,6.57
2023-05-24T18:10:12.833Z,10.90
2023-05-24T18:12:42.221Z,7.80
2023-05-24T18:15:10.817Z,8.63
2023-05-24T18:17:38.742Z,7.60
2023-05-24T18:20:07.573Z,10.40
2023-05-24T18:22:35.524Z,8.27
2023-05-24T18:25:03.650Z,9.23
2023-05-24T18:27:31.538Z,7.70
2023-05-24T18:30:01.112Z,6.43
2023-05-24T18:32:29.098Z,6.93
2023-05-24T18:34:57.113Z,7.57
2023-05-24T18:37:25.068Z,10.10
2023-05-24T18:39:52.990Z,7.07
2023-05-24T18:42:20.865Z,6.97
2023-05-24T18:44:48.792Z,11.60
2023-05-24T18:47:18.214Z,10.20
2023-05-24T18:49:46.233Z,6.27
2023-05-24T18:52:14.248Z,8.10
2023-05-24T18:54:42.283Z,10.30
2023-05-24T18:57:10.239Z,6.50
2023-05-24T18:59:38.865Z,9.10
2023-05-24T19:02:07.561Z,8.40
2023-05-24T19:04:36.899Z,8.80
2023-05-24T19:07:04.999Z,10.30
2023-05-24T19:09:32.898Z,8.37
2023-05-24T19:12:04.605Z,8.13
2023-05-24T19:14:32.607Z,12.37
2023-05-24T19:17:00.919Z,17.63
2023-05-24T19:19:28.936Z,19.37
2023-05-24T19:21:58.253Z,23.20
2023-05-24T19:24:26.183Z,12.33
2023-05-24T19:26:54.290Z,12.03
2023-05-24T19:29:22.239Z,14.17
2023-05-24T19:31:51.173Z,11.10
2023-05-24T19:34:19.599Z,14.40
2023-05-24T19:36:47.532Z,12.13
2023-05-24T19:39:16.820Z,11.90
2023-05-24T19:41:44.881Z,10.50
2023-05-24T19:44:12.798Z,9.63
2023-05-24T19:46:40.730Z,8.00
2023-05-24T19:49:08.688Z,5.63
2023-05-24T19:51:37.579Z,5.37
2023-05-24T19:54:05.672Z,5.63
2023-05-24T19:56:34.958Z,4.83
2023-05-24T19:59:02.954Z,5.57
2023-05-24T20:01:31.069Z,4.23
2023-05-24T20:03:59.195Z,6.40
2023-05-24T20:06:27.581Z,5.13
2023-05-24T20:08:57.812Z,5.40
2023-05-24T20:11:26.045Z,4.80
2023-05-24T20:13:56.180Z,7.10
2023-05-24T20:16:24.532Z,8.70
2023-05-24T20:18:52.565Z,6.13
2023-05-24T20:21:20.599Z,7.33
2023-05-24T20:23:50.698Z,7.40
2023-05-24T20:26:18.658Z,7.87
2023-05-24T20:28:47.099Z,11.80
2023-05-24T20:31:16.693Z,7.53
2023-05-24T20:33:44.834Z,8.20
2023-05-24T20:36:14.942Z,5.57
2023-05-24T20:38:42.939Z,7.23
2023-05-24T20:41:11.096Z,5.33
2023-05-24T20:43:39.146Z,5.63
2023-05-24T20:46:07.279Z,4.60
2023-05-24T20:48:36.585Z,5.23
2023-05-24T20:51:04.573Z,5.40
2023-05-24T20:53:32.720Z,5.63
2023-05-24T20:56:01.986Z,6.03
2023-05-24T20:58:30.979Z,5.93
2023-05-24T21:00:59.234Z,6.50
2023-05-24T21:03:27.298Z,4.50
2023-05-24T21:05:56.731Z,4.40
2023-05-24T21:08:24.678Z,5.00
2023-05-24T21:10:55.596Z,9.87
2023-05-24T21:13:25.734Z,4.83
2023-05-24T21:15:53.682Z,6.43
2023-05-24T21:18:21.622Z,5.07
2023-05-24T21:20:49.832Z,7.90
2023-05-24T21:23:19.095Z,6.30
2023-05-24T21:25:47.007Z,4.90
2023-05-24T21:28:15.148Z,10.87
2023-05-24T21:30:43.212Z,4.43
2023-05-24T21:33:12.314Z,4.67
2023-05-24T21:35:40.369Z,5.53
2023-05-24T21:38:08.330Z,5.97
2023-05-24T21:40:37.606Z,8.83
2023-05-24T21:43:05.897Z,8.57
2023-05-24T21:45:33.771Z,7.43
2023-05-24T21:48:01.767Z,8.13
2023-05-24T21:50:29.705Z,7.47
2023-05-24T21:52:57.625Z,5.60
2023-05-24T21:55:25.830Z,5.63
2023-05-24T21:57:55.106Z,4.30
2023-05-24T22:00:23.647Z,4.83
2023-05-24T22:02:51.713Z,4.97
2023-05-24T22:05:19.954Z,6.17
2023-05-24T22:07:47.896Z,5.30
2023-05-24T22:10:15.885Z,4.20
2023-05-24T22:12:43.885Z,4.83
2023-05-24T22:15:13.420Z,4.33
2023-05-24T22:17:42.035Z,5.17
2023-05-24T22:20:11.342Z,5.57
2023-05-24T22:22:40.332Z,5.23
2023-05-24T22:25:10.669Z,6.23
2023-05-24T22:27:38.640Z,5.27
2023-05-24T22:30:07.472Z,4.83
2023-05-24T22:32:37.004Z,5.03
2023-05-24T22:35:05.329Z,5.77
2023-05-24T22:37:33.396Z,9.97
2023-05-24T22:40:01.293Z,5.40
2023-05-24T22:42:30.282Z,7.13
2023-05-24T22:44:58.206Z,5.00
2023-05-24T22:47:26.877Z,4.83
2023-05-24T22:49:56.601Z,6.03
2023-05-24T22:52:24.719Z,4.97
2023-05-24T22:54:52.597Z,7.43
2023-05-24T22:57:21.809Z,4.47
2023-05-24T22:59:49.771Z,5.07
2023-05-24T23:02:17.673Z,6.17
2023-05-24T23:04:46.386Z,5.47
2023-05-24T23:07:16.703Z,4.40
2023-05-24T23:09:44.747Z,5.10
2023-05-24T23:12:14.209Z,6.27
2023-05-24T23:14:46.414Z,5.30
2023-05-24T23:17:14.620Z,5.77
2023-05-24T23:19:46.578Z,7.70
2023-05-24T23:22:18.626Z,4.73
2023-05-24T23:24:47.681Z,5.90
2023-05-24T23:27:15.908Z,5.13
2023-05-24T23:29:43.984Z,5.83
2023-05-24T23:32:11.913Z,5.67
2023-05-24T23:34:39.937Z,4.90
2023-05-24T23:37:08.940Z,8.17
2023-05-24T23:39:38.184Z,5.00
2023-05-24T23:42:07.470Z,4.87
2023-05-24T23:44:36.374Z,5.40
2023-05-24T23:47:04.377Z,8.70
2023-05-24T23:49:32.653Z,5.77
2023-05-24T23:52:00.810Z,6.53
2023-05-24T23:54:28.720Z,8.53
2023-05-24T23:56:57.960Z,11.40
2023-05-24T23:59:25.960Z,7.13
